createdAt,value
2022-12-23T00:01:59.947Z,3.40
2022-12-23T00:04:27.241Z,3.35
2022-12-23T00:06:54.523Z,3.35
2022-12-23T00:09:21.927Z,3.29
2022-12-23T00:12:07.849Z,3.21
2022-12-23T00:14:53.464Z,3.14
2022-12-23T00:17:23.185Z,3.11
2022-12-23T00:19:50.734Z,3.22
2022-12-23T00:22:18.046Z,3.18
2022-12-23T00:24:45.308Z,3.10
2022-12-23T00:27:12.637Z,2.86
2022-12-23T00:29:39.938Z,2.89
2022-12-23T00:32:07.291Z,2.90
2022-12-23T00:34:34.635Z,2.80
2022-12-23T00:37:02.110Z,2.75
2022-12-23T00:39:52.016Z,2.61
2022-12-23T00:42:40.498Z,2.48
2022-12-23T00:45:17.181Z,2.42
2022-12-23T00:48:03.136Z,2.40
2022-12-23T00:50:30.638Z,2.28
2022-12-23T00:52:58.077Z,2.26
2022-12-23T00:55:25.358Z,2.30
2022-12-23T00:57:52.643Z,2.22
2022-12-23T01:00:20.219Z,1.87
2022-12-23T01:03:06.131Z,1.81
2022-12-23T01:05:39.387Z,1.64
2022-12-23T01:08:09.435Z,1.59
2022-12-23T01:10:40.318Z,1.50
2022-12-23T01:13:08.371Z,1.46
2022-12-23T01:15:35.624Z,1.42
2022-12-23T01:18:02.927Z,1.26
2022-12-23T01:20:30.229Z,1.32
2022-12-23T01:22:57.770Z,1.29
2022-12-23T01:25:25.034Z,1.36
2022-12-23T01:27:52.332Z,1.36
2022-12-23T01:30:19.733Z,1.50
2022-12-23T01:32:48.389Z,1.56
2022-12-23T01:35:15.785Z,1.49
2022-12-23T01:37:43.047Z,1.53
2022-12-23T01:40:10.615Z,1.53
2022-12-23T01:42:43.780Z,1.61
2022-12-23T01:45:21.731Z,1.68
2022-12-23T01:47:57.130Z,1.70
2022-12-23T01:50:31.867Z,1.63
2022-12-23T01:53:26.439Z,1.68
2022-12-23T01:56:02.673Z,1.77
2022-12-23T01:58:34.471Z,1.78
2022-12-23T02:01:20.531Z,1.84
2022-12-23T02:03:48.790Z,1.90
2022-12-23T02:06:41.303Z,1.85
2022-12-23T02:09:19.220Z,1.73
2022-12-23T02:11:58.637Z,1.81
2022-12-23T02:15:04.532Z,1.77
2022-12-23T02:17:37.531Z,2.00
2022-12-23T02:20:29.503Z,1.82
2022-12-23T02:23:24.814Z,1.68
2022-12-23T02:25:52.159Z,1.70
2022-12-23T02:28:19.407Z,1.67
2022-12-23T02:30:48.640Z,1.73
2022-12-23T02:33:52.216Z,1.61
2022-12-23T02:36:34.474Z,1.54
2022-12-23T02:39:09.302Z,1.60
2022-12-23T02:41:38.998Z,1.63
2022-12-23T02:44:13.266Z,1.63
2022-12-23T02:46:48.435Z,1.57
2022-12-23T02:49:20.240Z,1.70
2022-12-23T02:51:50.720Z,1.75
2022-12-23T02:54:21.922Z,1.63
2022-12-23T02:56:50.483Z,1.68
2022-12-23T02:59:22.887Z,1.73
2022-12-23T03:01:50.296Z,1.60
2022-12-23T03:04:17.648Z,1.50
2022-12-23T03:06:46.516Z,1.51
2022-12-23T03:09:24.279Z,1.54
2022-12-23T03:12:28.684Z,1.57
2022-12-23T03:15:15.179Z,1.59
2022-12-23T03:17:54.440Z,1.50
2022-12-23T03:20:28.772Z,1.47
2022-12-23T03:23:05.897Z,1.46
2022-12-23T03:26:03.146Z,1.40
2022-12-23T03:28:40.230Z,1.44
2022-12-23T03:31:09.737Z,1.53
2022-12-23T03:33:39.202Z,1.46
2022-12-23T03:36:16.105Z,1.54
2022-12-23T03:38:43.886Z,1.54
2022-12-23T03:41:17.479Z,1.70
2022-12-23T03:43:50.975Z,1.73
2022-12-23T03:46:25.307Z,1.68
2022-12-23T03:48:54.341Z,1.61
2022-12-23T03:51:27.524Z,1.68
2022-12-23T03:54:03.930Z,1.66
2022-12-23T03:56:37.522Z,1.51
2022-12-23T03:59:14.499Z,1.47
2022-12-23T04:02:00.741Z,1.44
2022-12-23T04:04:52.363Z,1.49
2022-12-23T04:07:22.867Z,1.51
2022-12-23T04:09:51.514Z,1.60
2022-12-23T04:12:18.784Z,1.60
2022-12-23T04:14:47.734Z,1.73
2022-12-23T04:17:15.556Z,1.70
2022-12-23T04:19:45.486Z,1.77
2022-12-23T04:22:13.467Z,1.68
2022-12-23T04:24:40.829Z,1.74
2022-12-23T04:27:09.727Z,1.61
2022-12-23T04:29:37.011Z,1.60
2022-12-23T04:32:04.915Z,1.70
2022-12-23T04:34:32.223Z,1.74
2022-12-23T04:36:59.513Z,1.85
2022-12-23T04:39:26.771Z,1.95
2022-12-23T04:41:54.094Z,2.02
2022-12-23T04:44:21.418Z,2.15
2022-12-23T04:46:48.793Z,1.97
2022-12-23T04:49:16.234Z,1.95
2022-12-23T04:51:43.562Z,2.14
2022-12-23T04:54:10.877Z,2.14
2022-12-23T04:56:38.149Z,2.32
2022-12-23T04:59:05.526Z,2.18
2022-12-23T05:01:33.020Z,2.19
2022-12-23T05:04:00.395Z,2.28
2022-12-23T05:06:27.687Z,2.15
2022-12-23T05:08:54.968Z,2.08
2022-12-23T05:11:22.341Z,1.82
2022-12-23T05:13:49.709Z,1.84
2022-12-23T05:16:17.041Z,1.75
2022-12-23T05:18:44.396Z,1.81
2022-12-23T05:21:11.740Z,1.88
2022-12-23T05:23:39.093Z,1.82
2022-12-23T05:26:06.382Z,1.81
2022-12-23T05:28:33.706Z,1.81
2022-12-23T05:31:02.297Z,1.81
2022-12-23T05:33:29.891Z,1.93
2022-12-23T05:35:57.265Z,1.91
2022-12-23T05:38:24.756Z,1.95
2022-12-23T05:40:52.096Z,2.00
2022-12-23T05:43:19.596Z,2.08
2022-12-23T05:45:47.158Z,2.02
2022-12-23T05:48:14.483Z,1.94
2022-12-23T05:50:41.801Z,2.00
2022-12-23T05:53:09.120Z,2.12
2022-12-23T05:55:36.438Z,2.11
2022-12-23T05:58:03.784Z,2.07
2022-12-23T06:00:31.057Z,2.12
2022-12-23T06:02:58.511Z,2.19
2022-12-23T06:05:25.904Z,2.18
2022-12-23T06:07:53.161Z,2.18
2022-12-23T06:10:20.416Z,2.24
2022-12-23T06:12:47.736Z,2.18
2022-12-23T06:15:15.790Z,2.25
2022-12-23T06:17:43.212Z,2.21
2022-12-23T06:20:16.297Z,2.25
2022-12-23T06:22:47.379Z,2.28
2022-12-23T06:25:14.665Z,2.26
2022-12-23T06:27:41.901Z,2.22
2022-12-23T06:30:10.241Z,2.29
2022-12-23T06:32:38.744Z,2.29
2022-12-23T06:35:07.649Z,2.32
2022-12-23T06:37:34.956Z,2.46
2022-12-23T06:40:02.304Z,2.39
2022-12-23T06:42:29.833Z,2.49
2022-12-23T06:44:57.072Z,2.40
2022-12-23T06:47:24.339Z,2.21
2022-12-23T06:49:51.681Z,2.30
2022-12-23T06:52:19.018Z,2.29
2022-12-23T06:54:46.375Z,2.25
2022-12-23T06:57:13.717Z,2.28
2022-12-23T06:59:41.011Z,2.36
2022-12-23T07:02:12.832Z,2.46
2022-12-23T07:04:40.392Z,2.40
2022-12-23T07:07:07.713Z,2.28
2022-12-23T07:09:34.956Z,2.25
2022-12-23T07:12:03.903Z,2.22
2022-12-23T07:14:31.278Z,2.38
2022-12-23T07:16:58.660Z,2.45
2022-12-23T07:19:26.018Z,2.57
2022-12-23T07:21:53.449Z,2.60
2022-12-23T07:24:20.729Z,2.69
2022-12-23T07:26:48.103Z,2.69
2022-12-23T07:29:15.445Z,2.81
2022-12-23T07:31:42.972Z,2.69
2022-12-23T07:34:10.304Z,2.80
2022-12-23T07:36:37.622Z,2.73
2022-12-23T07:39:05.078Z,2.57
2022-12-23T07:41:32.341Z,2.69
2022-12-23T07:44:07.472Z,2.79
2022-12-23T07:46:35.052Z,2.75
2022-12-23T07:49:02.385Z,2.66
2022-12-23T07:51:29.820Z,2.49
2022-12-23T07:53:57.043Z,2.45
2022-12-23T07:56:24.390Z,2.28
2022-12-23T07:58:52.189Z,2.43
2022-12-23T08:01:19.924Z,2.59
2022-12-23T08:03:47.356Z,2.66
2022-12-23T08:06:15.367Z,2.80
2022-12-23T08:08:45.221Z,2.94
2022-12-23T08:11:13.468Z,2.98
2022-12-23T08:13:41.719Z,3.07
2022-12-23T08:16:09.409Z,3.04
2022-12-23T08:18:38.119Z,3.03
2022-12-23T08:21:13.253Z,3.07
2022-12-23T08:23:40.679Z,3.18
2022-12-23T08:26:12.608Z,3.22
2022-12-23T08:28:40.720Z,3.17
2022-12-23T08:31:13.001Z,3.12
2022-12-23T08:33:41.305Z,3.29
2022-12-23T08:36:09.500Z,3.51
2022-12-23T08:38:36.981Z,3.45
2022-12-23T08:41:08.988Z,3.52
2022-12-23T08:43:36.494Z,3.51
2022-12-23T08:46:04.244Z,3.56
2022-12-23T08:48:32.310Z,3.70
2022-12-23T08:51:12.477Z,3.87
2022-12-23T08:53:40.105Z,4.04
2022-12-23T08:56:10.757Z,4.31
2022-12-23T08:58:45.616Z,4.34
2022-12-23T09:01:14.023Z,4.47
2022-12-23T09:03:41.566Z,4.51
2022-12-23T09:06:28.616Z,4.80
2022-12-23T09:08:56.679Z,5.06
2022-12-23T09:11:25.377Z,5.31
2022-12-23T09:13:52.920Z,5.55
2022-12-23T09:16:20.389Z,5.66
2022-12-23T09:18:47.686Z,5.88
2022-12-23T09:21:16.630Z,6.13
2022-12-23T09:23:43.961Z,6.13
2022-12-23T09:26:11.521Z,6.33
2022-12-23T09:28:39.830Z,6.44
2022-12-23T09:31:11.417Z,6.60
2022-12-23T09:33:38.920Z,6.58
2022-12-23T09:36:06.655Z,6.54
2022-12-23T09:38:34.116Z,6.65
2022-12-23T09:41:24.921Z,6.87
2022-12-23T09:43:52.221Z,7.05
2022-12-23T09:46:21.821Z,7.20
2022-12-23T09:48:54.090Z,7.20
2022-12-23T09:51:22.751Z,7.30
2022-12-23T09:54:04.045Z,7.29
2022-12-23T09:56:53.171Z,7.20
2022-12-23T09:59:26.356Z,7.22
2022-12-23T10:02:16.581Z,7.49
2022-12-23T10:05:05.780Z,7.84
2022-12-23T10:07:39.930Z,7.47
2022-12-23T10:10:32.355Z,7.75
2022-12-23T10:13:00.691Z,7.53
2022-12-23T10:15:44.305Z,7.75
2022-12-23T10:18:47.133Z,7.95
2022-12-23T10:21:47.318Z,8.15
2022-12-23T10:24:24.936Z,8.42
2022-12-23T10:26:56.827Z,8.67
2022-12-23T10:29:25.469Z,8.81
2022-12-23T10:32:04.548Z,8.97
2022-12-23T10:34:38.783Z,9.04
2022-12-23T10:37:15.483Z,9.07
2022-12-23T10:39:53.293Z,9.00
2022-12-23T10:43:02.217Z,9.14
2022-12-23T10:45:50.770Z,9.22
2022-12-23T10:48:51.115Z,9.00
2022-12-23T10:51:21.482Z,8.66
2022-12-23T10:54:06.015Z,8.79
2022-12-23T10:56:33.342Z,8.76
2022-12-23T10:59:00.995Z,8.83
2022-12-23T11:01:30.397Z,8.74
2022-12-23T11:04:13.188Z,8.76
2022-12-23T11:06:43.044Z,8.76
2022-12-23T11:09:33.873Z,8.84
2022-12-23T11:12:02.722Z,8.90
2022-12-23T11:14:39.122Z,8.99
2022-12-23T11:17:18.824Z,9.00
2022-12-23T11:19:46.215Z,8.90
2022-12-23T11:22:31.376Z,9.17
2022-12-23T11:25:26.940Z,9.07
2022-12-23T11:28:15.477Z,9.12
2022-12-23T11:30:50.380Z,9.14
2022-12-23T11:33:32.050Z,9.04
2022-12-23T11:36:14.522Z,9.04
2022-12-23T11:38:59.101Z,9.17
2022-12-23T11:41:34.207Z,9.25
2022-12-23T11:44:28.565Z,9.30
2022-12-23T11:46:55.923Z,9.41
2022-12-23T11:49:25.141Z,9.43
2022-12-23T11:52:05.820Z,9.62
2022-12-23T11:54:33.526Z,9.75
2022-12-23T11:57:02.354Z,9.87
2022-12-23T11:59:36.038Z,9.86
2022-12-23T12:02:25.230Z,9.90
2022-12-23T12:05:15.582Z,9.89
2022-12-23T12:07:45.636Z,9.83
2022-12-23T12:10:18.180Z,10.01
2022-12-23T12:12:48.786Z,9.91
2022-12-23T12:15:40.700Z,9.76
2022-12-23T12:18:10.206Z,9.70
2022-12-23T12:20:39.792Z,9.99
2022-12-23T12:23:13.098Z,9.89
2022-12-23T12:25:43.441Z,9.62
2022-12-23T12:28:19.903Z,9.68
2022-12-23T12:30:49.594Z,9.72
2022-12-23T12:33:23.574Z,9.43
2022-12-23T12:36:05.525Z,9.35
2022-12-23T12:38:33.479Z,9.61
2022-12-23T12:41:19.495Z,9.62
2022-12-23T12:44:18.601Z,9.65
2022-12-23T12:46:55.844Z,9.70
2022-12-23T12:49:25.351Z,9.91
2022-12-23T12:52:14.114Z,10.13
2022-12-23T12:54:46.805Z,10.33
2022-12-23T12:57:18.659Z,10.31
2022-12-23T12:59:46.010Z,10.54
2022-12-23T13:02:32.406Z,10.41
2022-12-23T13:04:59.711Z,10.41
2022-12-23T13:07:48.576Z,10.38
2022-12-23T13:10:37.238Z,10.44
2022-12-23T13:13:23.540Z,10.14
2022-12-23T13:16:18.645Z,9.97
2022-12-23T13:19:24.957Z,9.97
2022-12-23T13:22:05.384Z,9.99
2022-12-23T13:24:38.552Z,9.93
2022-12-23T13:27:14.986Z,9.96
2022-12-23T13:30:24.318Z,10.21
2022-12-23T13:33:09.205Z,10.01
2022-12-23T13:36:05.058Z,9.72
2022-12-23T13:38:52.010Z,10.13
2022-12-23T13:41:36.362Z,10.04
2022-12-23T13:44:05.544Z,9.68
2022-12-23T13:47:10.295Z,9.86
2022-12-23T13:49:40.425Z,9.79
2022-12-23T13:52:35.679Z,9.91
2022-12-23T13:55:08.956Z,9.62
2022-12-23T13:57:42.167Z,9.63
2022-12-23T14:00:18.666Z,9.53
2022-12-23T14:02:58.263Z,9.72
2022-12-23T14:05:45.465Z,9.66
2022-12-23T14:08:18.883Z,9.78
2022-12-23T14:11:03.819Z,9.51
2022-12-23T14:13:59.426Z,9.65
2022-12-23T14:16:51.418Z,9.70
2022-12-23T14:19:18.826Z,9.52
2022-12-23T14:22:10.600Z,9.78
2022-12-23T14:24:50.008Z,9.78
2022-12-23T14:27:41.481Z,9.82
2022-12-23T14:30:33.850Z,10.04
2022-12-23T14:33:14.598Z,9.94
2022-12-23T14:35:42.889Z,9.56
2022-12-23T14:38:10.577Z,9.75
2022-12-23T14:40:37.864Z,9.86
2022-12-23T14:43:25.297Z,9.79
2022-12-23T14:45:56.850Z,9.46
2022-12-23T14:48:37.142Z,9.43
2022-12-23T14:51:22.668Z,9.38
2022-12-23T14:53:52.697Z,9.51
2022-12-23T14:56:20.105Z,9.58
2022-12-23T14:59:15.370Z,9.51
2022-12-23T15:01:43.590Z,9.17
2022-12-23T15:04:18.566Z,9.07
2022-12-23T15:06:55.641Z,9.17
2022-12-23T15:09:35.461Z,9.32
2022-12-23T15:12:06.373Z,9.27
2022-12-23T15:14:57.879Z,8.93
2022-12-23T15:17:33.033Z,9.10
2022-12-23T15:20:21.709Z,9.31
2022-12-23T15:22:49.224Z,9.28
2022-12-23T15:25:32.810Z,9.14
2022-12-23T15:28:02.225Z,9.49
2022-12-23T15:30:35.162Z,9.66
2022-12-23T15:33:27.918Z,9.22
2022-12-23T15:35:54.362Z,8.94
2022-12-23T15:38:21.738Z,9.28
2022-12-23T15:41:03.208Z,9.04
2022-12-23T15:43:30.621Z,8.73
2022-12-23T15:46:25.166Z,8.81
2022-12-23T15:48:56.790Z,9.12
2022-12-23T15:54:29.875Z,8.66
2022-12-23T15:56:57.971Z,8.60
2022-12-23T15:59:33.309Z,8.62
2022-12-23T16:02:32.613Z,8.73
2022-12-23T16:05:00.641Z,8.63
2022-12-23T16:07:43.047Z,8.84
2022-12-23T16:10:15.570Z,8.85
2022-12-23T16:12:42.842Z,8.91
2022-12-23T16:15:20.686Z,9.20
2022-12-23T16:17:47.980Z,9.17
2022-12-23T16:20:23.668Z,8.90
2022-12-23T16:22:55.143Z,8.85
2022-12-23T16:25:44.103Z,8.72
2022-12-23T16:28:26.513Z,8.35
2022-12-23T16:30:55.155Z,8.31
2022-12-23T16:33:44.325Z,8.31
2022-12-23T16:36:25.421Z,8.35
2022-12-23T16:39:14.405Z,8.42
2022-12-23T16:41:41.822Z,8.50
2022-12-23T16:44:09.167Z,8.36
2022-12-23T16:46:37.887Z,8.31
2022-12-23T16:49:06.588Z,8.56
2022-12-23T16:51:40.640Z,8.88
2022-12-23T16:54:12.615Z,8.83
2022-12-23T16:56:40.858Z,8.42
2022-12-23T16:59:08.659Z,8.22
2022-12-23T17:01:40.799Z,8.33
2022-12-23T17:04:09.137Z,8.45
2022-12-23T17:06:36.405Z,8.57
2022-12-23T17:09:05.194Z,8.66
2022-12-23T17:11:42.854Z,8.63
2022-12-23T17:14:20.960Z,8.54
2022-12-23T17:16:48.577Z,8.56
2022-12-23T17:19:18.225Z,8.46
2022-12-23T17:21:49.912Z,8.16
2022-12-23T17:24:18.747Z,8.21
2022-12-23T17:26:46.055Z,8.26
2022-12-23T17:29:13.339Z,8.38
2022-12-23T17:31:41.348Z,8.32
2022-12-23T17:34:19.345Z,8.11
2022-12-23T17:36:50.348Z,8.02
2022-12-23T17:39:19.129Z,7.99
2022-12-23T17:41:46.541Z,8.15
2022-12-23T17:44:14.782Z,8.24
2022-12-23T17:46:42.282Z,8.39
2022-12-23T17:49:09.581Z,8.72
2022-12-23T17:51:36.903Z,8.62
2022-12-23T17:54:05.901Z,8.66
2022-12-23T17:56:33.208Z,8.54
2022-12-23T17:59:00.503Z,8.56
2022-12-23T18:01:30.248Z,8.38
2022-12-23T18:03:58.285Z,8.50
2022-12-23T18:06:26.343Z,8.41
2022-12-23T18:08:53.736Z,8.41
2022-12-23T18:11:30.571Z,8.28
2022-12-23T18:13:57.842Z,8.33
2022-12-23T18:16:25.172Z,8.22
2022-12-23T18:18:53.013Z,8.28
2022-12-23T18:21:25.251Z,8.38
2022-12-23T18:23:53.575Z,8.25
2022-12-23T18:26:21.081Z,7.99
2022-12-23T18:28:48.381Z,8.02
2022-12-23T18:31:20.480Z,8.33
2022-12-23T18:33:47.960Z,8.38
2022-12-23T18:36:31.685Z,8.38
2022-12-23T18:38:59.081Z,8.32
2022-12-23T18:41:26.713Z,8.24
2022-12-23T18:43:54.295Z,8.11
2022-12-23T18:46:21.733Z,7.80
2022-12-23T18:48:49.198Z,7.66
2022-12-23T18:51:17.322Z,7.62
2022-12-23T18:53:45.628Z,7.54
2022-12-23T18:56:21.181Z,7.62
2022-12-23T18:58:48.940Z,7.80
2022-12-23T19:01:17.091Z,7.85
2022-12-23T19:03:44.556Z,7.75
2022-12-23T19:06:15.142Z,7.64
2022-12-23T19:08:42.678Z,7.71
2022-12-23T19:11:18.384Z,7.77
2022-12-23T19:13:45.921Z,7.77
2022-12-23T19:16:15.598Z,7.81
2022-12-23T19:18:43.551Z,8.05
2022-12-23T19:21:10.855Z,8.05
2022-12-23T19:23:39.798Z,7.94
2022-12-23T19:26:08.726Z,8.02
2022-12-23T19:28:37.169Z,7.80
2022-12-23T19:31:08.955Z,7.94
2022-12-23T19:33:40.184Z,8.05
2022-12-23T19:36:14.851Z,7.84
2022-12-23T19:38:42.222Z,7.80
2022-12-23T19:41:09.699Z,8.20
2022-12-23T19:43:37.919Z,8.05
2022-12-23T19:46:07.452Z,7.78
2022-12-23T19:48:34.895Z,8.01
2022-12-23T19:51:04.307Z,7.80
2022-12-23T19:53:31.731Z,7.67
2022-12-23T19:56:07.298Z,7.80
2022-12-23T19:58:35.711Z,7.84
2022-12-23T20:01:06.413Z,7.90
2022-12-23T20:03:33.894Z,7.91
2022-12-23T20:06:01.309Z,7.73
2022-12-23T20:08:28.657Z,7.73
2022-12-23T20:11:19.762Z,7.85
2022-12-23T20:13:47.211Z,7.77
2022-12-23T20:16:14.631Z,7.99
2022-12-23T20:18:42.004Z,7.95
2022-12-23T20:21:09.329Z,7.94
2022-12-23T20:23:36.683Z,7.90
2022-12-23T20:26:04.073Z,7.99
2022-12-23T20:28:31.555Z,7.97
2022-12-23T20:31:07.803Z,8.02
2022-12-23T20:33:38.592Z,7.95
2022-12-23T20:36:06.559Z,7.78
2022-12-23T20:38:34.935Z,7.80
2022-12-23T20:41:03.284Z,7.74
2022-12-23T20:43:30.844Z,7.66
2022-12-23T20:45:58.194Z,7.63
2022-12-23T20:48:31.667Z,7.53
2022-12-23T20:51:20.358Z,7.53
2022-12-23T20:53:47.681Z,7.53
2022-12-23T20:56:16.714Z,7.52
2022-12-23T20:58:56.142Z,7.59
2022-12-23T21:01:40.100Z,7.54
2022-12-23T21:04:09.547Z,7.64
2022-12-23T21:06:36.924Z,7.78
2022-12-23T21:09:05.971Z,7.70
2022-12-23T21:11:36.942Z,7.74
2022-12-23T21:14:07.152Z,7.53
2022-12-23T21:16:35.856Z,7.37
2022-12-23T21:19:03.799Z,7.26
2022-12-23T21:21:32.067Z,7.39
2022-12-23T21:24:00.946Z,7.29
2022-12-23T21:26:29.049Z,7.44
2022-12-23T21:29:00.490Z,7.47
2022-12-23T21:31:28.973Z,7.56
2022-12-23T21:33:56.551Z,7.67
2022-12-23T21:36:31.244Z,7.70
2022-12-23T21:38:58.883Z,7.67
2022-12-23T21:41:30.603Z,7.60
2022-12-23T21:43:58.277Z,7.57
2022-12-23T21:46:25.782Z,7.74
2022-12-23T21:48:53.197Z,7.69
2022-12-23T21:51:34.838Z,7.71
2022-12-23T21:54:06.135Z,7.99
2022-12-23T21:56:33.513Z,7.88
2022-12-23T21:59:02.685Z,7.80
2022-12-23T22:01:30.045Z,7.84
2022-12-23T22:03:57.684Z,7.73
2022-12-23T22:06:29.407Z,7.77
2022-12-23T22:08:56.886Z,7.84
2022-12-23T22:11:25.895Z,7.85
2022-12-23T22:13:53.245Z,7.78
2022-12-23T22:16:21.955Z,7.90
2022-12-23T22:18:49.488Z,7.87
2022-12-23T22:21:19.468Z,7.98
2022-12-23T22:23:46.935Z,7.95
2022-12-23T22:26:20.441Z,7.84
2022-12-23T22:28:51.861Z,7.85
2022-12-23T22:31:25.166Z,7.62
2022-12-23T22:33:52.453Z,7.71
2022-12-23T22:36:19.808Z,7.77
2022-12-23T22:38:55.149Z,7.64
2022-12-23T22:41:22.689Z,7.53
2022-12-23T22:43:50.141Z,7.40
2022-12-23T22:46:18.550Z,7.40
2022-12-23T22:48:46.473Z,7.36
2022-12-23T22:51:22.095Z,7.43
2022-12-23T22:53:49.512Z,7.52
2022-12-23T22:56:17.528Z,7.36
2022-12-23T22:58:44.833Z,7.42
2022-12-23T23:01:18.357Z,7.53
2022-12-23T23:03:45.632Z,7.43
2022-12-23T23:06:12.916Z,7.40
2022-12-23T23:08:41.466Z,7.30
2022-12-23T23:11:08.785Z,7.37
2022-12-23T23:13:36.138Z,7.52
2022-12-23T23:16:03.598Z,7.37
2022-12-23T23:18:30.952Z,7.30
2022-12-23T23:20:58.470Z,7.23
2022-12-23T23:23:25.784Z,7.26
2022-12-23T23:25:53.061Z,7.32
2022-12-23T23:28:20.407Z,7.29
2022-12-23T23:30:47.712Z,7.32
2022-12-23T23:33:15.057Z,7.42
2022-12-23T23:35:42.368Z,7.40
2022-12-23T23:38:09.620Z,7.22
2022-12-23T23:40:37.226Z,7.23
2022-12-23T23:43:04.587Z,7.27
2022-12-23T23:45:31.948Z,7.37
2022-12-23T23:47:59.305Z,7.25
2022-12-23T23:50:26.694Z,7.15
2022-12-23T23:52:53.952Z,7.12
2022-12-23T23:55:21.313Z,7.11
2022-12-23T23:57:48.600Z,7.27
